Time;durP1;ratioP1;P1;durP2;ratioP2;P2;SDS_P1;SDS_P2;PMS_P1;PMS_P2;Temp;Humidity;BMP_temperature;BMP_pressure;BME280_temperature;BME280_humidity;BME280_pressure;Samples;Min_cycle;Max_cycle;Signal;HPM_P1;HPM_P2
2023/06/18 00:01:59;;;;;;;13.63;5.93;;;;;;;19.84;55.86;98371.03;5031522;28;20026;-46
2023/06/18 00:04:28;;;;;;;8.80;5.50;;;;;;;19.77;55.98;98376.63;5013742;28;20030;-46
2023/06/18 00:06:54;;;;;;;12.40;5.70;;;;;;;19.71;55.66;98383.81;5010159;28;20129;-45
2023/06/18 00:09:21;;;;;;;9.98;5.90;;;;;;;19.63;56.13;98379.00;5011618;28;20042;-45
2023/06/18 00:11:47;;;;;;;46.63;26.63;;;;;;;19.52;57.04;98388.06;4993958;28;20038;-45
2023/06/18 00:14:12;;;;;;;9.00;6.50;;;;;;;19.47;57.23;98388.84;5011659;28;20022;-45
2023/06/18 00:16:38;;;;;;;12.20;6.82;;;;;;;19.41;57.55;98386.47;5012436;28;20030;-45
2023/06/18 00:19:04;;;;;;;8.13;6.63;;;;;;;19.39;57.63;98386.72;4997760;28;20408;-46
2023/06/18 00:21:30;;;;;;;13.05;6.82;;;;;;;19.40;57.62;98379.53;4997617;28;20454;-46
2023/06/18 00:23:56;;;;;;;9.40;6.20;;;;;;;19.38;57.38;98371.84;5015284;28;20026;-46
2023/06/18 00:26:23;;;;;;;13.63;6.57;;;;;;;19.32;57.44;98370.22;4997880;28;20180;-45
2023/06/18 00:28:49;;;;;;;12.07;6.47;;;;;;;19.29;57.59;98379.53;4997893;28;20108;-45
2023/06/18 00:31:14;;;;;;;12.43;6.32;;;;;;;19.52;57.55;98374.78;4997388;28;20515;-46
2023/06/18 00:33:40;;;;;;;9.30;6.25;;;;;;;19.87;56.75;98381.94;4997760;28;20069;-46
2023/06/18 00:36:06;;;;;;;11.20;5.68;;;;;;;20.02;55.70;98385.66;4997582;28;20120;-46
2023/06/18 00:38:34;;;;;;;12.45;6.38;;;;;;;19.82;55.82;98387.31;4997353;28;20073;-46
2023/06/18 00:40:59;;;;;;;12.68;6.90;;;;;;;19.64;56.65;98383.28;5014966;28;20029;-45
2023/06/18 00:43:28;;;;;;;8.55;6.40;;;;;;;19.48;57.16;98392.34;5014919;28;20529;-46
2023/06/18 00:46:02;;;;;;;11.93;6.70;;;;;;;19.35;57.98;98399.75;5014949;28;20026;-45
2023/06/18 00:48:31;;;;;;;10.23;6.90;;;;;;;19.28;57.90;98398.44;4997192;28;20385;-45
2023/06/18 00:50:59;;;;;;;8.35;6.45;;;;;;;19.29;58.06;98395.50;4997299;28;20125;-45
2023/06/18 00:53:25;;;;;;;6.72;6.03;;;;;;;19.23;58.15;98390.44;4997421;28;20187;-46
2023/06/18 00:55:52;;;;;;;14.68;6.80;;;;;;;19.28;58.66;98385.13;4997326;28;20034;-46
2023/06/18 00:58:23;;;;;;;12.63;6.90;;;;;;;19.46;58.72;98386.47;4996899;28;20034;-46
2023/06/18 01:00:50;;;;;;;9.30;6.38;;;;;;;19.80;58.03;98385.94;5014516;28;20120;-46
2023/06/18 01:03:20;;;;;;;9.68;6.80;;;;;;;19.75;56.90;98381.44;4997216;28;20048;-45
2023/06/18 01:05:58;;;;;;;7.85;6.18;;;;;;;19.52;56.82;98377.44;5014763;28;20056;-46
2023/06/18 01:08:24;;;;;;;16.38;6.72;;;;;;;19.40;58.05;98388.34;5014343;28;20041;-46
2023/06/18 01:11:04;;;;;;;12.18;6.18;;;;;;;19.65;57.98;98381.41;5014560;28;20026;-45
2023/06/18 01:13:39;;;;;;;9.43;5.68;;;;;;;19.69;56.84;98377.16;4996704;28;20041;-45
2023/06/18 01:16:07;;;;;;;6.85;5.57;;;;;;;19.55;57.25;98380.34;5014284;28;20112;-46
2023/06/18 01:18:36;;;;;;;18.52;8.68;;;;;;;19.56;57.38;98373.97;5014350;28;20036;-46
2023/06/18 01:21:09;;;;;;;11.00;7.70;;;;;;;19.63;56.62;98368.34;4997289;28;20022;-46
2023/06/18 01:23:50;;;;;;;9.90;6.22;;;;;;;19.48;56.31;98371.03;4996711;28;20044;-45
2023/06/18 01:26:20;;;;;;;8.30;6.05;;;;;;;19.33;56.38;98369.94;4996594;28;20041;-46
2023/06/18 01:28:51;;;;;;;11.05;6.68;;;;;;;19.54;56.67;98370.78;4996059;28;20033;-45
2023/06/18 01:31:22;;;;;;;14.07;6.72;;;;;;;19.82;56.46;98359.84;5014229;28;20109;-46
2023/06/18 01:33:51;;;;;;;8.15;5.45;;;;;;;19.99;55.38;98368.34;5014029;28;20046;-46
2023/06/18 01:36:34;;;;;;;9.40;5.70;;;;;;;19.92;55.46;98354.50;5013859;28;20522;-45
2023/06/18 01:39:13;;;;;;;13.55;6.47;;;;;;;19.80;55.95;98362.81;5013899;28;20072;-46
2023/06/18 01:41:44;;;;;;;12.70;7.00;;;;;;;19.84;56.69;98350.53;5013908;28;20492;-45
2023/06/18 01:44:18;;;;;;;17.33;7.10;;;;;;;19.88;57.26;98351.59;5013770;28;20025;-46
2023/06/18 01:46:47;;;;;;;10.75;7.03;;;;;;;20.31;56.32;98338.69;5013692;28;20030;-46
2023/06/18 01:49:13;;;;;;;22.42;10.82;;;;;;;20.59;55.87;98338.34;5013696;28;20061;-46
2023/06/18 01:51:40;;;;;;;11.57;7.25;;;;;;;20.79;55.62;98350.78;5013599;28;20033;-46
2023/06/18 01:54:10;;;;;;;11.05;6.32;;;;;;;21.03;54.77;98340.22;4996017;28;20384;-46
2023/06/18 01:56:36;;;;;;;21.38;12.13;;;;;;;21.07;54.37;98349.28;5013875;28;20506;-45
2023/06/18 01:59:03;;;;;;;17.52;12.38;;;;;;;20.98;54.15;98353.59;4995903;28;20522;-46
2023/06/18 02:01:30;;;;;;;19.90;13.20;;;;;;;20.82;54.62;98345.66;5013498;28;20061;-46
2023/06/18 02:03:56;;;;;;;14.05;8.48;;;;;;;20.67;54.82;98329.78;5013396;28;20121;-45
2023/06/18 02:06:22;;;;;;;9.02;6.30;;;;;;;20.81;55.28;98330.75;5013391;28;20029;-45
2023/06/18 02:08:48;;;;;;;15.95;8.70;;;;;;;20.86;54.35;98327.25;5013259;28;20046;-46
2023/06/18 02:11:13;;;;;;;7.82;5.85;;;;;;;20.95;53.81;98326.38;5013213;28;20558;-46
2023/06/18 02:13:39;;;;;;;12.45;6.63;;;;;;;21.06;54.31;98334.31;4995608;28;20030;-46
2023/06/18 02:16:05;;;;;;;8.32;6.75;;;;;;;21.15;54.01;98327.34;4995738;28;20061;-46
2023/06/18 02:18:31;;;;;;;12.43;7.05;;;;;;;21.14;54.56;98323.06;5013152;28;20381;-46
2023/06/18 02:20:58;;;;;;;12.90;6.60;;;;;;;21.04;54.45;98325.81;4979719;28;20111;-44
2023/06/18 02:23:23;;;;;;;13.85;7.05;;;;;;;21.09;54.67;98315.09;4995390;28;20026;-44
2023/06/18 02:25:49;;;;;;;17.98;6.40;;;;;;;21.22;54.28;98325.13;4995412;28;20381;-44
2023/06/18 02:28:15;;;;;;;19.20;7.80;;;;;;;21.26;54.40;98326.16;4995443;28;20123;-44
2023/06/18 02:30:41;;;;;;;16.27;6.95;;;;;;;21.42;54.32;98328.72;5013156;28;20033;-44
2023/06/18 02:33:06;;;;;;;27.77;8.30;;;;;;;21.50;54.04;98328.94;5012941;28;20442;-44
2023/06/18 02:35:33;;;;;;;10.13;6.47;;;;;;;21.43;53.53;98325.81;4995230;28;20040;-44
2023/06/18 02:37:59;;;;;;;15.57;7.15;;;;;;;21.50;54.04;98328.13;4979042;28;20064;-44
2023/06/18 02:40:25;;;;;;;16.42;7.10;;;;;;;21.51;53.42;98330.53;4994408;28;20022;-44
2023/06/18 02:42:52;;;;;;;14.65;7.10;;;;;;;21.30;53.35;98335.19;5012729;28;20041;-44
2023/06/18 02:45:27;;;;;;;15.10;7.03;;;;;;;21.25;53.98;98335.25;4995003;28;20033;-44
2023/06/18 02:47:53;;;;;;;8.35;6.47;;;;;;;21.23;54.29;98342.75;4995084;28;20033;-44
2023/06/18 02:50:19;;;;;;;17.42;7.05;;;;;;;21.33;54.41;98342.66;4994868;28;20433;-44
2023/06/18 02:52:46;;;;;;;8.90;6.30;;;;;;;21.46;53.79;98335.13;4995017;28;20026;-44
2023/06/18 02:55:13;;;;;;;7.13;6.40;;;;;;;21.27;53.28;98337.63;5012479;28;20037;-44
2023/06/18 02:57:40;;;;;;;17.17;7.97;;;;;;;21.11;54.07;98328.97;5012766;28;20037;-44
2023/06/18 03:00:12;;;;;;;12.60;6.72;;;;;;;20.87;54.04;98334.97;5012768;28;20029;-44
2023/06/18 03:02:38;;;;;;;12.48;7.40;;;;;;;20.65;55.00;98339.91;4995467;28;20041;-44
2023/06/18 03:05:04;;;;;;;12.93;6.95;;;;;;;20.65;55.02;98335.38;4978500;28;20121;-45
2023/06/18 03:07:31;;;;;;;12.20;6.45;;;;;;;20.65;55.18;98345.25;5002454;28;20041;-44
2023/06/18 03:09:57;;;;;;;10.43;6.60;;;;;;;20.71;54.88;98341.47;5031975;28;20116;-44
2023/06/18 03:12:24;;;;;;;15.93;7.13;;;;;;;20.45;55.01;98335.44;4997921;28;20163;-44
2023/06/18 03:14:50;;;;;;;11.80;6.88;;;;;;;20.26;55.67;98336.06;5031974;28;20036;-44
2023/06/18 03:17:15;;;;;;;20.27;8.85;;;;;;;20.17;56.45;98337.66;5031899;28;20038;-44
2023/06/18 03:19:41;;;;;;;8.35;6.53;;;;;;;20.34;56.57;98338.16;5031959;28;20029;-44
2023/06/18 03:22:07;;;;;;;14.05;6.95;;;;;;;20.29;56.61;98330.16;5031887;28;20475;-44
2023/06/18 03:24:34;;;;;;;14.05;6.30;;;;;;;20.36;56.37;98335.19;5014146;28;20033;-44
2023/06/18 03:27:00;;;;;;;10.98;6.95;;;;;;;20.26;56.48;98329.91;5031756;28;20034;-44
2023/06/18 03:29:28;;;;;;;16.55;7.32;;;;;;;20.06;56.87;98330.75;5031766;28;20049;-44
2023/06/18 03:31:55;;;;;;;19.20;6.93;;;;;;;20.18;57.79;98330.47;5031794;28;20026;-44
2023/06/18 03:34:21;;;;;;;14.68;7.18;;;;;;;20.28;57.22;98333.91;4997753;28;20574;-44
2023/06/18 03:36:48;;;;;;;13.43;6.75;;;;;;;20.54;57.58;98329.28;5031755;28;20041;-45
2023/06/18 03:39:15;;;;;;;15.02;7.43;;;;;;;20.69;56.58;98330.28;5031735;28;20024;-44
2023/06/18 03:41:41;;;;;;;13.40;7.47;;;;;;;20.93;56.98;98330.41;5031649;28;20022;-44
2023/06/18 03:44:07;;;;;;;11.50;7.28;;;;;;;21.15;55.72;98333.47;5031657;28;20084;-44
2023/06/18 03:46:33;;;;;;;17.95;8.00;;;;;;;21.32;55.77;98338.38;5013923;28;20442;-44
2023/06/18 03:48:59;;;;;;;16.25;7.20;;;;;;;21.33;54.81;98344.53;5013878;28;20033;-44
2023/06/18 03:51:26;;;;;;;17.13;7.75;;;;;;;21.14;55.25;98347.06;5033767;28;20033;-44
2023/06/18 03:53:51;;;;;;;15.65;6.85;;;;;;;21.30;55.64;98343.22;5017899;28;20036;-44
2023/06/18 03:56:18;;;;;;;13.20;6.50;;;;;;;21.60;54.69;98341.41;5035621;28;20029;-44
2023/06/18 03:58:44;;;;;;;19.65;7.47;;;;;;;21.66;54.38;98350.16;5018073;28;20124;-44
2023/06/18 04:01:12;;;;;;;13.07;6.82;;;;;;;21.67;53.87;98333.88;5017784;28;20041;-44
2023/06/18 04:03:38;;;;;;;25.23;12.85;;;;;;;21.72;53.73;98336.47;5017663;28;20514;-44
2023/06/18 04:06:04;;;;;;;15.90;8.32;;;;;;;21.80;53.47;98332.41;5035392;28;20031;-44
2023/06/18 04:08:31;;;;;;;23.27;8.23;;;;;;;21.81;53.10;98330.53;5019372;28;20123;-44
2023/06/18 04:10:58;;;;;;;13.93;6.72;;;;;;;22.01;52.67;98341.00;5015483;28;20030;-44
2023/06/18 04:13:23;;;;;;;10.40;6.65;;;;;;;21.99;52.61;98345.81;5015500;28;20092;-44
2023/06/18 04:15:49;;;;;;;16.70;7.47;;;;;;;21.90;52.72;98345.66;4981670;28;20041;-44
2023/06/18 04:18:16;;;;;;;9.32;6.63;;;;;;;21.79;52.72;98343.34;4997787;28;20041;-44
2023/06/18 04:20:42;;;;;;;16.77;7.22;;;;;;;21.61;53.46;98342.19;4997775;28;20530;-44
2023/06/18 04:23:08;;;;;;;15.45;7.38;;;;;;;21.71;53.31;98342.09;4997718;28;20038;-44
2023/06/18 04:25:34;;;;;;;7.47;6.03;;;;;;;22.04;51.67;98337.75;4997768;28;20022;-44
2023/06/18 04:28:00;;;;;;;13.15;6.55;;;;;;;22.68;50.36;98348.28;4997897;28;20030;-44
2023/06/18 04:30:26;;;;;;;14.68;7.10;;;;;;;23.46;49.01;98356.78;4997719;28;20037;-45
2023/06/18 04:32:52;;;;;;;16.02;7.47;;;;;;;24.09;47.68;98350.09;5015224;28;20403;-44
2023/06/18 04:35:19;;;;;;;10.38;6.45;;;;;;;24.41;46.43;98359.09;5015171;28;20092;-44
2023/06/18 04:37:45;;;;;;;9.45;6.15;;;;;;;24.40;46.36;98373.63;4981573;28;20408;-44
2023/06/18 04:40:11;;;;;;;13.32;7.65;;;;;;;23.81;47.17;98362.66;5014968;28;20022;-44
2023/06/18 04:42:36;;;;;;;7.95;6.18;;;;;;;23.76;48.19;98368.06;4997435;28;20049;-44
2023/06/18 04:45:03;;;;;;;8.00;6.00;;;;;;;24.27;47.23;98365.28;5015024;28;20034;-45
2023/06/18 04:47:29;;;;;;;10.48;6.47;;;;;;;24.32;46.33;98361.69;4997337;28;20036;-45
2023/06/18 04:49:55;;;;;;;18.42;7.38;;;;;;;24.34;46.61;98370.25;5014809;28;20030;-44
2023/06/18 04:52:20;;;;;;;21.52;7.13;;;;;;;24.55;46.30;98384.09;4997291;28;20529;-45
2023/06/18 04:54:46;;;;;;;10.75;6.65;;;;;;;24.31;46.62;98397.66;4997243;28;20029;-44
2023/06/18 04:57:12;;;;;;;9.35;6.60;;;;;;;24.21;46.94;98395.19;4997189;28;20405;-44
2023/06/18 04:59:38;;;;;;;23.80;8.25;;;;;;;24.09;47.43;98396.47;4997170;28;20053;-44
2023/06/18 05:02:04;;;;;;;9.32;6.45;;;;;;;24.16;46.74;98395.25;5013842;28;20030;-44
2023/06/18 05:04:30;;;;;;;10.02;5.93;;;;;;;24.88;45.24;98392.75;5014786;28;20037;-44
2023/06/18 05:06:56;;;;;;;11.02;5.88;;;;;;;26.31;41.96;98387.72;5014306;28;20419;-44
2023/06/18 05:09:22;;;;;;;11.82;6.10;;;;;;;26.73;40.92;98382.03;4996918;28;20037;-44
2023/06/18 05:11:49;;;;;;;15.27;5.97;;;;;;;26.48;41.37;98379.72;5014263;28;20515;-44
2023/06/18 05:14:15;;;;;;;6.88;6.22;;;;;;;26.73;40.97;98374.72;5014453;28;20034;-44
2023/06/18 05:16:40;;;;;;;9.50;5.75;;;;;;;27.32;40.15;98362.72;4996866;28;20038;-45
2023/06/18 05:19:06;;;;;;;7.72;6.13;;;;;;;27.67;39.17;98358.88;4996709;28;20538;-45
2023/06/18 05:21:32;;;;;;;10.43;6.25;;;;;;;28.06;38.41;98358.91;5014234;28;20057;-45
2023/06/18 05:23:57;;;;;;;16.08;8.40;;;;;;;28.33;38.15;98349.56;4996632;28;20040;-44
2023/06/18 05:26:23;;;;;;;12.95;5.68;;;;;;;28.85;37.02;98345.78;5014243;28;20471;-45
2023/06/18 05:28:49;;;;;;;11.30;5.57;;;;;;;29.18;35.47;98340.44;4996530;28;20034;-45
2023/06/18 05:31:15;;;;;;;5.22;4.57;;;;;;;28.98;35.44;98346.66;5014071;28;20114;-44
2023/06/18 05:33:41;;;;;;;8.95;5.40;;;;;;;28.58;35.57;98344.38;5014068;28;20054;-44
2023/06/18 05:36:07;;;;;;;12.05;5.53;;;;;;;28.27;36.60;98345.47;4996403;28;20076;-44
2023/06/18 05:38:33;;;;;;;9.73;5.07;;;;;;;28.32;36.08;98348.00;5013981;28;20037;-45
2023/06/18 05:40:58;;;;;;;10.25;4.70;;;;;;;28.24;36.41;98344.22;5013944;28;20084;-44
2023/06/18 05:43:24;;;;;;;6.30;5.47;;;;;;;28.26;36.20;98352.00;4996274;28;20041;-44
2023/06/18 05:45:50;;;;;;;7.82;5.10;;;;;;;28.59;35.63;98345.97;5013798;28;20030;-45
2023/06/18 05:48:16;;;;;;;8.95;4.95;;;;;;;28.75;35.49;98349.66;5014083;28;20033;-44
2023/06/18 05:50:42;;;;;;;7.47;4.72;;;;;;;29.29;34.72;98340.81;4995971;28;20522;-45
2023/06/18 05:53:08;;;;;;;8.73;4.80;;;;;;;29.88;33.53;98334.31;4996046;28;20403;-44
2023/06/18 05:55:34;;;;;;;6.97;5.10;;;;;;;30.06;32.89;98338.41;5013657;28;20034;-45
2023/06/18 05:57:59;;;;;;;7.93;5.07;;;;;;;30.30;32.84;98327.91;4995921;28;20467;-45
2023/06/18 06:00:26;;;;;;;5.30;4.35;;;;;;;30.68;32.18;98330.22;4995906;28;20492;-44
2023/06/18 06:02:52;;;;;;;13.15;5.30;;;;;;;31.15;31.74;98332.38;4995966;28;20057;-45
2023/06/18 06:05:18;;;;;;;6.03;4.30;;;;;;;32.06;30.68;98341.72;5013432;28;20049;-45
2023/06/18 06:07:45;;;;;;;5.68;4.97;;;;;;;32.93;29.06;98328.88;5001820;28;20057;-45
2023/06/18 06:10:16;;;;;;;14.30;6.05;;;;;;;33.46;28.50;98333.00;5013323;28;20073;-45
2023/06/18 06:12:42;;;;;;;7.65;4.70;;;;;;;33.05;28.50;98338.81;5012068;28;20076;-45
2023/06/18 06:15:09;;;;;;;5.90;4.90;;;;;;;33.02;28.12;98340.34;5012049;28;20038;-45
2023/06/18 06:17:36;;;;;;;14.90;5.88;;;;;;;33.83;27.90;98344.97;5013512;28;20033;-45
2023/06/18 06:20:02;;;;;;;9.77;4.95;;;;;;;35.35;26.08;98345.09;5011896;28;20084;-45
2023/06/18 06:22:28;;;;;;;6.93;4.50;;;;;;;36.57;24.46;98335.16;5013093;28;20029;-45
2023/06/18 06:24:54;;;;;;;6.40;4.40;;;;;;;37.07;22.83;98332.66;5011903;28;20113;-46
2023/06/18 06:27:20;;;;;;;7.50;4.68;;;;;;;36.99;22.79;98329.13;5011788;28;20388;-45
2023/06/18 06:29:45;;;;;;;8.90;4.68;;;;;;;36.63;23.07;98324.66;5011664;28;20033;-45
2023/06/18 06:32:11;;;;;;;6.22;4.30;;;;;;;35.70;23.56;98320.13;5013000;28;20032;-45
2023/06/18 06:34:37;;;;;;;7.18;4.22;;;;;;;35.22;24.17;98317.31;5013043;28;20060;-45
2023/06/18 06:37:02;;;;;;;15.70;5.05;;;;;;;34.73;25.18;98313.63;5012914;28;20038;-45
2023/06/18 06:39:28;;;;;;;9.50;4.72;;;;;;;34.37;25.23;98310.41;5011593;28;20587;-45
2023/06/18 06:41:54;;;;;;;15.93;5.55;;;;;;;34.70;24.31;98308.13;5012880;28;20152;-45
2023/06/18 06:44:20;;;;;;;14.10;4.45;;;;;;;34.48;24.47;98305.06;5013086;28;20380;-45
2023/06/18 06:46:46;;;;;;;15.27;4.93;;;;;;;33.18;26.15;98304.13;5011444;28;20029;-45
2023/06/18 06:49:11;;;;;;;9.93;4.97;;;;;;;31.41;28.88;98307.50;5012685;28;20587;-45
2023/06/18 06:51:37;;;;;;;6.35;4.70;;;;;;;30.32;30.31;98312.91;4994982;28;20029;-45
2023/06/18 06:54:04;;;;;;;9.85;5.65;;;;;;;29.44;31.76;98313.16;5011478;28;20080;-45
2023/06/18 06:56:30;;;;;;;7.07;4.60;;;;;;;28.83;33.20;98316.38;5012545;28;20030;-45
2023/06/18 06:58:57;;;;;;;9.63;4.97;;;;;;;28.37;33.83;98318.13;5011239;28;20030;-45
2023/06/18 07:01:23;;;;;;;8.73;5.25;;;;;;;27.84;35.09;98330.25;5011197;28;20096;-45
2023/06/18 07:03:48;;;;;;;5.32;4.57;;;;;;;27.72;35.22;98332.84;5012523;28;20072;-45
2023/06/18 07:06:14;;;;;;;9.20;5.18;;;;;;;27.77;34.99;98336.16;5012451;28;20026;-45
2023/06/18 07:08:40;;;;;;;17.92;11.00;;;;;;;28.08;34.76;98335.88;5012274;28;20478;-45
2023/06/18 07:11:06;;;;;;;10.77;5.35;;;;;;;28.41;34.28;98340.66;4994686;28;20052;-45
2023/06/18 07:13:32;;;;;;;15.15;6.03;;;;;;;28.85;34.22;98337.66;4994653;28;20087;-45
2023/06/18 07:15:57;;;;;;;11.38;5.55;;;;;;;29.56;33.29;98334.03;5012280;28;20029;-45
2023/06/18 07:18:24;;;;;;;15.65;5.80;;;;;;;29.70;33.05;98335.63;4994604;28;20041;-45
2023/06/18 07:20:49;;;;;;;8.32;4.38;;;;;;;30.15;32.59;98345.63;5012424;28;20434;-45
2023/06/18 07:23:15;;;;;;;24.98;7.57;;;;;;;30.76;31.60;98342.06;5012223;28;20092;-45
2023/06/18 07:25:41;;;;;;;7.03;4.93;;;;;;;31.33;30.87;98338.28;4994075;28;20034;-45
2023/06/18 07:28:06;;;;;;;7.18;4.65;;;;;;;31.45;30.42;98335.53;4994519;28;20034;-45
2023/06/18 07:30:32;;;;;;;14.77;5.40;;;;;;;31.64;30.40;98332.13;5012028;28;20034;-45
2023/06/18 07:32:57;;;;;;;13.75;5.80;;;;;;;31.95;30.56;98327.06;4994441;28;20088;-45
2023/06/18 07:35:23;;;;;;;11.20;6.40;;;;;;;31.98;30.21;98331.78;4994346;28;20427;-45
2023/06/18 07:37:49;;;;;;;5.47;4.88;;;;;;;31.62;30.78;98342.53;4994337;28;20038;-45
2023/06/18 07:40:16;;;;;;;6.05;5.05;;;;;;;31.49;31.33;98332.13;5012266;28;20022;-45
2023/06/18 07:42:41;;;;;;;6.38;4.82;;;;;;;31.70;31.47;98326.47;5011965;28;20030;-46
2023/06/18 07:45:07;;;;;;;11.63;5.28;;;;;;;32.33;30.67;98317.50;5012109;28;20083;-45
2023/06/18 07:47:33;;;;;;;9.23;5.22;;;;;;;33.46;29.66;98317.47;5012109;28;20109;-45
2023/06/18 07:50:01;;;;;;;8.18;4.78;;;;;;;34.49;27.82;98319.47;5011852;28;20084;-45
2023/06/18 07:52:27;;;;;;;9.15;4.00;;;;;;;35.01;27.23;98326.00;4978120;28;20092;-45
2023/06/18 07:54:53;;;;;;;10.90;4.93;;;;;;;36.33;26.03;98322.94;5012105;28;20030;-45
2023/06/18 07:57:18;;;;;;;6.60;4.68;;;;;;;37.61;24.30;98321.06;4994228;28;20065;-45
2023/06/18 07:59:44;;;;;;;6.00;4.15;;;;;;;38.22;23.90;98318.31;4994178;28;20503;-45
2023/06/18 08:02:10;;;;;;;6.00;4.13;;;;;;;39.06;23.03;98320.38;5011729;28;20030;-46
2023/06/18 08:04:35;;;;;;;9.13;4.70;;;;;;;41.06;21.23;98315.00;4994181;28;20045;-48
2023/06/18 08:07:01;;;;;;;6.00;3.78;;;;;;;43.00;19.02;98314.41;5011803;28;20057;-48
2023/06/18 08:09:27;;;;;;;10.00;4.57;;;;;;;43.77;18.26;98309.50;4994357;28;20500;-48
2023/06/18 08:11:53;;;;;;;4.78;4.15;;;;;;;42.94;18.20;98318.88;4993964;28;20038;-48
2023/06/18 08:14:19;;;;;;;5.97;4.13;;;;;;;41.50;19.48;98317.94;5011666;28;20038;-48
2023/06/18 08:16:44;;;;;;;8.52;4.18;;;;;;;40.11;20.29;98315.72;4993977;28;20030;-48
2023/06/18 08:19:10;;;;;;;12.25;4.32;;;;;;;38.76;22.07;98310.72;5011702;28;20597;-48
2023/06/18 08:21:36;;;;;;;8.73;4.25;;;;;;;38.01;22.85;98313.63;5011618;28;20113;-48
2023/06/18 08:24:02;;;;;;;6.25;4.00;;;;;;;37.64;23.47;98314.81;4993976;28;20030;-48
2023/06/18 08:26:28;;;;;;;5.35;4.13;;;;;;;37.22;24.07;98305.34;5011543;28;20064;-48
2023/06/18 08:28:54;;;;;;;5.70;4.50;;;;;;;36.73;23.88;98302.84;4994026;28;20066;-46
2023/06/18 08:31:22;;;;;;;5.63;4.57;;;;;;;35.84;24.31;98316.72;4993866;28;20030;-45
2023/06/18 08:33:49;;;;;;;10.38;4.35;;;;;;;34.78;25.48;98317.94;5011506;28;20026;-45
2023/06/18 08:36:15;;;;;;;11.60;4.80;;;;;;;33.77;26.83;98318.41;5011453;28;20037;-45
2023/06/18 08:38:41;;;;;;;8.43;4.85;;;;;;;32.79;27.52;98318.50;5013854;28;20117;-45
2023/06/18 08:41:07;;;;;;;9.82;4.90;;;;;;;32.12;28.81;98326.72;5015053;28;20080;-45
2023/06/18 08:43:35;;;;;;;6.78;5.07;;;;;;;31.89;29.77;98333.88;4981315;28;20116;-45
2023/06/18 08:46:12;;;;;;;7.65;5.25;;;;;;;31.90;30.09;98341.69;4997418;28;20435;-45
2023/06/18 08:48:54;;;;;;;9.05;4.90;;;;;;;32.29;29.37;98341.84;4997274;28;20065;-45
2023/06/18 08:51:20;;;;;;;8.15;4.55;;;;;;;32.47;29.00;98346.91;5014839;28;20486;-45
2023/06/18 08:53:53;;;;;;;5.53;4.57;;;;;;;32.49;29.49;98339.19;5015101;28;20070;-45
2023/06/18 08:56:22;;;;;;;8.18;5.15;;;;;;;32.53;28.81;98350.91;4997175;28;20033;-45
2023/06/18 08:58:52;;;;;;;5.00;4.05;;;;;;;32.43;28.64;98350.31;4997109;28;20034;-45
2023/06/18 09:01:19;;;;;;;6.40;5.35;;;;;;;32.22;28.83;98352.56;4997013;28;20037;-45
2023/06/18 09:03:45;;;;;;;8.00;4.55;;;;;;;31.95;29.28;98359.63;5014684;28;20080;-45
2023/06/18 09:06:14;;;;;;;18.63;5.10;;;;;;;31.66;29.59;98375.19;5014587;28;20025;-45
2023/06/18 09:08:40;;;;;;;9.40;4.63;;;;;;;31.37;29.81;98377.13;5014295;28;20089;-45
2023/06/18 09:11:06;;;;;;;6.18;4.40;;;;;;;31.37;29.79;98374.44;4996780;28;20064;-45
2023/06/18 09:13:33;;;;;;;6.72;4.55;;;;;;;31.44;30.26;98377.34;4980709;28;20061;-45
2023/06/18 09:16:00;;;;;;;6.07;4.35;;;;;;;31.53;29.99;98376.41;5014633;28;20030;-45
2023/06/18 09:18:26;;;;;;;8.43;5.10;;;;;;;31.58;30.27;98379.66;5014623;28;20030;-45
2023/06/18 09:20:53;;;;;;;9.32;4.82;;;;;;;31.42;30.00;98385.00;4996737;28;20573;-45
2023/06/18 09:23:19;;;;;;;11.20;4.72;;;;;;;31.15;30.58;98388.50;5014239;28;20033;-45
2023/06/18 09:25:53;;;;;;;6.07;4.88;;;;;;;30.57;31.11;98380.59;4996600;28;20462;-45
2023/06/18 09:28:23;;;;;;;6.73;4.20;;;;;;;29.82;31.86;98390.59;5014229;28;20084;-45
2023/06/18 09:30:54;;;;;;;11.52;5.63;;;;;;;29.01;33.72;98391.91;4996400;28;20273;-45
2023/06/18 09:33:28;;;;;;;15.63;6.70;;;;;;;28.61;34.76;98398.50;4996497;28;20037;-45
2023/06/18 09:36:12;;;;;;;;;;;;;;;28.49;35.05;98395.69;4996833;28;20124;-45
2023/06/18 09:38:40;;;;;;;5.50;4.90;;;;;;;28.00;36.71;98403.38;5014076;28;19925;-45
2023/06/18 09:41:27;;;;;;;12.20;4.90;;;;;;;27.58;36.78;98400.44;5014184;28;20454;-45
2023/06/18 09:43:54;;;;;;;7.63;4.90;;;;;;;27.42;37.15;98405.53;5014210;28;20450;-45
2023/06/18 09:46:25;;;;;;;7.68;5.47;;;;;;;27.36;37.83;98402.19;4996300;28;20043;-45
2023/06/18 09:48:51;;;;;;;7.53;4.80;;;;;;;27.42;37.65;98410.91;5013588;28;20026;-45
2023/06/18 09:51:19;;;;;;;6.53;4.57;;;;;;;27.58;37.23;98408.53;5013771;28;20121;-45
2023/06/18 09:53:55;;;;;;;6.70;4.97;;;;;;;27.74;37.60;98411.50;5013652;28;20026;-45
2023/06/18 09:56:21;;;;;;;11.15;5.03;;;;;;;27.97;37.08;98404.00;4996155;28;20072;-45
2023/06/18 09:58:48;;;;;;;10.15;5.28;;;;;;;28.20;36.30;98399.19;5013651;28;20045;-45
2023/06/18 10:01:19;;;;;;;7.88;5.25;;;;;;;28.32;36.25;98398.50;5013617;28;20030;-45
2023/06/18 10:03:45;;;;;;;6.55;5.20;;;;;;;28.51;36.37;98398.09;4996028;28;20120;-45
2023/06/18 10:06:17;;;;;;;6.55;4.88;;;;;;;29.08;35.33;98398.38;5013532;28;20034;-45
2023/06/18 10:08:49;;;;;;;6.18;4.72;;;;;;;29.26;34.97;98390.16;5013366;28;20046;-45
2023/06/18 10:11:17;;;;;;;6.93;4.97;;;;;;;29.12;35.32;98393.13;5013575;28;20068;-45
2023/06/18 10:14:05;;;;;;;7.18;5.35;;;;;;;29.07;35.84;98391.38;4995716;28;20053;-45
2023/06/18 10:16:34;;;;;;;9.30;5.13;;;;;;;28.96;35.52;98397.50;4980308;28;20457;-45
2023/06/18 10:19:27;;;;;;;6.70;5.20;;;;;;;28.87;35.76;98400.25;4995654;28;20030;-45
2023/06/18 10:22:03;;;;;;;6.20;4.72;;;;;;;28.81;35.76;98390.78;5003187;28;20046;-45
2023/06/18 10:25:01;;;;;;;7.10;5.57;;;;;;;28.80;35.87;98397.31;5013085;28;20042;-45
2023/06/18 10:27:28;;;;;;;9.45;6.40;;;;;;;28.75;36.32;98389.38;5013154;28;20065;-45
2023/06/18 10:29:57;;;;;;;6.75;5.30;;;;;;;28.78;35.77;98391.44;4995378;28;20034;-45
2023/06/18 10:32:23;;;;;;;5.40;4.90;;;;;;;28.91;35.54;98395.00;5013232;28;20503;-45
2023/06/18 10:34:51;;;;;;;6.80;5.00;;;;;;;29.27;35.32;98389.00;5013062;28;20050;-45
2023/06/18 10:37:17;;;;;;;10.48;9.20;;;;;;;29.32;34.53;98393.41;5012929;28;20038;-45
2023/06/18 10:39:44;;;;;;;12.93;10.90;;;;;;;29.19;35.02;98385.25;4995161;28;20033;-45
2023/06/18 10:42:15;;;;;;;8.75;6.38;;;;;;;29.25;36.24;98391.25;5012785;28;20036;-45
2023/06/18 10:44:55;;;;;;;10.35;5.00;;;;;;;29.22;35.02;98386.53;4995129;28;20034;-45
2023/06/18 10:47:23;;;;;;;10.32;6.20;;;;;;;29.19;34.84;98381.78;5012934;28;20038;-45
2023/06/18 10:50:01;;;;;;;9.40;5.78;;;;;;;28.80;35.60;98389.19;5012914;28;20049;-45
2023/06/18 10:52:34;;;;;;;8.70;5.18;;;;;;;28.57;36.26;98394.09;5012668;28;20439;-45
2023/06/18 10:55:07;;;;;;;7.32;5.35;;;;;;;28.26;37.29;98403.28;5012651;28;20057;-45
2023/06/18 10:57:41;;;;;;;6.07;5.43;;;;;;;28.07;37.82;98409.88;5012618;28;20077;-45
2023/06/18 11:00:35;;;;;;;15.43;6.32;;;;;;;28.05;38.91;98405.88;5011947;28;20030;-45
2023/06/18 11:03:11;;;;;;;21.35;6.18;;;;;;;28.02;38.72;98399.22;4992702;28;20034;-45
2023/06/18 11:05:41;;;;;;;8.43;5.93;;;;;;;28.03;38.44;98387.34;5012472;28;20615;-45
2023/06/18 11:08:09;;;;;;;10.02;5.50;;;;;;;27.83;38.64;98391.50;5003714;28;20042;-45
2023/06/18 11:10:45;;;;;;;11.23;5.28;;;;;;;27.68;39.28;98397.41;5012216;28;20088;-45
2023/06/18 11:13:11;;;;;;;12.73;5.88;;;;;;;27.62;39.45;98388.69;5012342;28;20076;-45
2023/06/18 11:15:52;;;;;;;10.05;5.82;;;;;;;27.57;39.47;98398.81;5011039;28;20243;-45
2023/06/18 11:18:21;;;;;;;9.88;5.72;;;;;;;27.56;39.97;98389.19;5012341;28;20034;-45
2023/06/18 11:20:47;;;;;;;13.60;5.45;;;;;;;27.59;40.02;98397.41;5012522;28;20038;-45
2023/06/18 11:23:15;;;;;;;9.52;5.65;;;;;;;27.60;39.94;98393.59;5010978;28;20030;-45
2023/06/18 11:25:41;;;;;;;8.18;5.70;;;;;;;27.55;40.35;98392.97;5012104;28;20033;-45
2023/06/18 11:28:08;;;;;;;7.70;4.90;;;;;;;27.44;40.73;98393.31;5010900;28;20030;-45
2023/06/18 11:30:36;;;;;;;11.18;5.60;;;;;;;27.36;40.82;98377.94;5012063;28;20032;-45
2023/06/18 11:33:02;;;;;;;22.90;8.05;;;;;;;27.40;41.71;98376.19;5012194;28;20566;-45